createdAt,value
2022-12-27T00:01:01.233Z,5.65
2022-12-27T00:03:48.348Z,5.97
2022-12-27T00:06:35.994Z,6.13
2022-12-27T00:09:23.188Z,6.32
2022-12-27T00:12:11.010Z,6.85
2022-12-27T00:14:58.112Z,7.05
2022-12-27T00:17:44.933Z,7.97
2022-12-27T00:20:31.664Z,7.28
2022-12-27T00:23:18.490Z,7.50
2022-12-27T00:26:07.025Z,7.53
2022-12-27T00:28:53.790Z,7.70
2022-12-27T00:31:40.359Z,7.82
2022-12-27T00:34:27.159Z,8.65
2022-12-27T00:37:13.974Z,7.63
2022-12-27T00:40:00.723Z,7.82
2022-12-27T00:42:47.494Z,7.88
2022-12-27T00:45:34.606Z,7.63
2022-12-27T00:48:21.233Z,8.30
2022-12-27T00:51:18.067Z,8.38
2022-12-27T00:54:04.897Z,8.50
2022-12-27T00:56:52.713Z,8.18
2022-12-27T00:59:39.479Z,8.35
2022-12-27T01:02:26.211Z,8.55
2022-12-27T01:05:12.583Z,8.88
2022-12-27T01:07:59.384Z,9.27
2022-12-27T01:10:45.512Z,8.70
2022-12-27T01:13:31.814Z,9.07
2022-12-27T01:16:20.181Z,9.52
2022-12-27T01:19:06.982Z,9.48
2022-12-27T01:21:54.077Z,9.15
2022-12-27T01:24:40.878Z,8.38
2022-12-27T01:27:27.629Z,10.07
2022-12-27T01:30:14.818Z,9.10
2022-12-27T01:33:01.967Z,9.20
2022-12-27T01:35:48.503Z,8.02
2022-12-27T01:38:34.867Z,8.35
2022-12-27T01:41:50.970Z,9.10
2022-12-27T01:44:40.473Z,8.45
2022-12-27T01:47:39.995Z,9.23
2022-12-27T01:50:30.626Z,8.45
2022-12-27T01:53:17.273Z,8.90
2022-12-27T01:56:05.923Z,9.13
2022-12-27T01:59:03.498Z,8.73
2022-12-27T02:01:50.955Z,9.20
2022-12-27T02:04:37.496Z,8.90
2022-12-27T02:07:27.799Z,9.10
2022-12-27T02:10:15.017Z,9.63
2022-12-27T02:13:02.581Z,9.18
2022-12-27T02:15:49.277Z,9.63
2022-12-27T02:18:36.078Z,10.05
2022-12-27T02:21:26.179Z,9.65
2022-12-27T02:24:15.916Z,9.30
2022-12-27T02:27:02.671Z,9.10
2022-12-27T02:29:55.533Z,9.80
2022-12-27T02:32:47.981Z,9.25
2022-12-27T02:35:35.017Z,9.37
2022-12-27T02:38:30.906Z,10.35
2022-12-27T02:41:36.217Z,10.82
2022-12-27T02:44:41.547Z,11.02
2022-12-27T02:47:47.765Z,9.90
2022-12-27T02:51:32.751Z,11.02
2022-12-27T02:54:36.639Z,10.60
2022-12-27T02:57:23.895Z,10.93
2022-12-27T03:00:30.318Z,11.07
2022-12-27T03:03:24.677Z,10.45
2022-12-27T03:06:42.061Z,10.20
2022-12-27T03:09:53.834Z,10.57
2022-12-27T03:13:07.199Z,10.02
2022-12-27T03:16:12.437Z,9.85
2022-12-27T03:18:59.375Z,9.60
2022-12-27T03:22:05.835Z,10.23
2022-12-27T03:25:11.941Z,10.52
2022-12-27T03:28:20.202Z,9.45
2022-12-27T03:31:27.811Z,9.50
2022-12-27T03:34:34.829Z,10.27
2022-12-27T03:37:46.768Z,9.68
2022-12-27T03:40:35.379Z,10.30
2022-12-27T03:43:22.147Z,10.57
2022-12-27T03:46:36.685Z,9.77
2022-12-27T03:49:47.465Z,10.30
2022-12-27T03:52:55.364Z,10.93
2022-12-27T03:55:42.204Z,10.40
2022-12-27T03:58:29.317Z,9.82
2022-12-27T04:01:15.991Z,10.65
2022-12-27T04:04:03.131Z,11.45
2022-12-27T04:06:50.337Z,12.25
2022-12-27T04:09:55.156Z,11.75
2022-12-27T04:13:00.110Z,13.40
2022-12-27T04:16:04.881Z,12.38
2022-12-27T04:19:09.997Z,12.48
2022-12-27T04:22:15.154Z,13.02
2022-12-27T04:25:20.409Z,13.15
2022-12-27T04:28:25.732Z,13.02
2022-12-27T04:31:31.023Z,12.57
2022-12-27T04:34:36.242Z,12.70
2022-12-27T04:37:23.418Z,12.98
2022-12-27T04:40:28.527Z,13.52
2022-12-27T04:43:33.559Z,12.88
2022-12-27T04:46:41.312Z,13.32
2022-12-27T04:49:46.712Z,13.95
2022-12-27T04:52:52.419Z,14.05
2022-12-27T04:55:39.523Z,13.98
2022-12-27T04:58:26.769Z,12.85
2022-12-27T05:01:32.485Z,13.98
2022-12-27T05:04:20.101Z,13.35
2022-12-27T05:07:27.068Z,13.27
2022-12-27T05:10:32.258Z,13.90
2022-12-27T05:13:37.342Z,13.75
2022-12-27T05:16:24.693Z,14.27
2022-12-27T05:19:13.197Z,13.65
2022-12-27T05:22:18.078Z,14.68
2022-12-27T05:25:23.457Z,14.10
2022-12-27T05:28:11.916Z,14.48
2022-12-27T05:31:03.273Z,13.60
2022-12-27T05:33:50.806Z,14.70
2022-12-27T05:36:37.815Z,14.32
2022-12-27T05:39:24.736Z,14.35
2022-12-27T05:42:11.700Z,14.80
2022-12-27T05:44:58.353Z,15.18
2022-12-27T05:47:44.823Z,14.75
2022-12-27T05:50:31.207Z,14.75
2022-12-27T05:53:29.581Z,14.52
2022-12-27T05:56:17.199Z,14.20
2022-12-27T05:59:03.956Z,13.80
2022-12-27T06:01:50.630Z,12.55
2022-12-27T06:04:37.871Z,11.48
2022-12-27T06:07:24.891Z,10.70
2022-12-27T06:10:11.858Z,10.25
2022-12-27T06:13:01.040Z,9.63
2022-12-27T06:15:48.067Z,8.48
2022-12-27T06:18:37.567Z,8.32
2022-12-27T06:21:27.743Z,8.70
2022-12-27T06:24:14.664Z,8.40
2022-12-27T06:27:01.521Z,8.05
2022-12-27T06:29:48.480Z,7.05
2022-12-27T06:32:38.435Z,7.10
2022-12-27T06:35:25.177Z,6.65
2022-12-27T06:38:12.277Z,6.78
2022-12-27T06:41:03.263Z,5.88
2022-12-27T06:43:50.062Z,5.25
2022-12-27T06:46:36.764Z,4.80
2022-12-27T06:49:24.058Z,4.38
2022-12-27T06:52:11.092Z,4.55
2022-12-27T06:54:57.523Z,4.28
2022-12-27T06:57:44.315Z,3.70
2022-12-27T07:00:32.784Z,4.13
2022-12-27T07:03:19.804Z,3.20
2022-12-27T07:06:08.692Z,3.30
2022-12-27T07:08:56.061Z,2.80
2022-12-27T07:11:43.122Z,3.00
2022-12-27T07:14:30.397Z,3.15
2022-12-27T07:17:17.719Z,2.60
2022-12-27T07:20:05.491Z,3.25
2022-12-27T07:22:53.608Z,3.67
2022-12-27T07:25:39.890Z,3.65
2022-12-27T07:28:28.003Z,3.58
2022-12-27T07:31:16.929Z,3.78
2022-12-27T07:34:04.740Z,3.03
2022-12-27T07:36:51.446Z,3.67
2022-12-27T07:39:38.257Z,3.47
2022-12-27T07:42:25.284Z,3.22
2022-12-27T07:45:12.206Z,3.35
2022-12-27T07:47:59.311Z,3.80
2022-12-27T07:50:54.415Z,3.50
2022-12-27T08:03:14.798Z,2.70
2022-12-27T08:06:02.300Z,3.38
2022-12-27T08:26:45.657Z,7.20
2022-12-27T08:29:32.205Z,6.90
2022-12-27T08:47:26.705Z,4.15
2022-12-27T08:50:13.669Z,4.07
2022-12-27T08:53:01.668Z,6.55
2022-12-27T08:55:48.437Z,4.15
2022-12-27T08:58:37.138Z,5.93
2022-12-27T09:01:27.170Z,4.90
2022-12-27T09:04:14.794Z,3.72
2022-12-27T09:07:01.831Z,5.18
2022-12-27T09:09:48.333Z,5.70
2022-12-27T09:12:35.015Z,5.25
2022-12-27T09:15:21.625Z,6.53
2022-12-27T09:18:18.568Z,7.07
2022-12-27T09:21:08.890Z,6.90
2022-12-27T09:24:02.813Z,5.15
2022-12-27T09:26:56.375Z,5.40
2022-12-27T09:29:48.699Z,4.25
2022-12-27T09:32:36.332Z,4.03
2022-12-27T09:35:26.458Z,4.15
2022-12-27T09:38:18.964Z,3.72
2022-12-27T09:41:07.639Z,4.20
2022-12-27T09:44:20.515Z,3.97
2022-12-27T09:47:20.425Z,3.72
2022-12-27T09:50:18.723Z,3.78
2022-12-27T09:53:17.560Z,3.25
2022-12-27T09:56:05.472Z,3.50
2022-12-27T09:58:53.086Z,2.97
2022-12-27T10:01:44.736Z,2.33
2022-12-27T10:05:00.886Z,2.90
2022-12-27T10:07:59.486Z,3.22
2022-12-27T10:11:04.882Z,2.75
2022-12-27T10:13:56.221Z,3.03
2022-12-27T10:17:02.802Z,2.90
2022-12-27T10:19:52.187Z,3.28
2022-12-27T10:22:41.875Z,3.00
2022-12-27T10:25:29.369Z,3.92
2022-12-27T10:28:23.621Z,3.50
2022-12-27T10:31:14.830Z,3.58
2022-12-27T10:34:06.193Z,3.92
2022-12-27T10:36:55.916Z,3.50
2022-12-27T10:39:42.542Z,3.55
2022-12-27T10:42:32.857Z,3.22
2022-12-27T10:45:46.424Z,3.03
2022-12-27T10:48:54.668Z,3.58
2022-12-27T10:51:42.105Z,3.65
2022-12-27T10:54:29.967Z,2.95
2022-12-27T10:57:19.634Z,2.67
2022-12-27T11:00:20.484Z,3.20
2022-12-27T11:03:19.980Z,2.70
2022-12-27T11:06:09.429Z,2.83
2022-12-27T11:08:56.266Z,3.17
2022-12-27T11:11:44.631Z,2.30
2022-12-27T11:14:31.632Z,3.03
2022-12-27T11:17:19.817Z,3.38
2022-12-27T11:20:20.831Z,3.42
2022-12-27T11:23:10.362Z,4.30
2022-12-27T11:25:59.135Z,4.75
2022-12-27T11:28:56.455Z,4.70
2022-12-27T11:31:48.243Z,4.20
2022-12-27T11:34:36.905Z,3.30
2022-12-27T11:37:25.380Z,3.10
2022-12-27T11:40:23.085Z,3.72
2022-12-27T11:43:11.520Z,4.00
2022-12-27T11:45:58.492Z,4.40
2022-12-27T11:48:46.843Z,3.83
2022-12-27T11:51:47.681Z,3.65
2022-12-27T11:54:52.996Z,3.28
2022-12-27T11:57:39.303Z,3.22
2022-12-27T12:00:32.133Z,3.13
2022-12-27T12:03:27.427Z,3.03
2022-12-27T12:06:16.630Z,3.70
2022-12-27T12:09:05.998Z,3.60
2022-12-27T12:11:59.011Z,4.05
2022-12-27T12:15:11.924Z,4.25
2022-12-27T12:18:24.121Z,4.07
2022-12-27T12:21:30.652Z,4.55
2022-12-27T12:24:30.355Z,3.80
2022-12-27T12:27:31.158Z,4.00
2022-12-27T12:30:39.125Z,5.65
2022-12-27T12:33:26.503Z,4.95
2022-12-27T12:36:33.289Z,4.78
2022-12-27T12:39:38.734Z,4.93
2022-12-27T12:42:28.572Z,4.88
2022-12-27T12:45:33.833Z,4.57
2022-12-27T12:49:00.387Z,3.88
2022-12-27T12:51:51.402Z,4.32
2022-12-27T12:54:38.231Z,3.85
2022-12-27T12:57:40.061Z,3.28
2022-12-27T13:00:32.372Z,4.20
2022-12-27T13:03:24.628Z,3.45
2022-12-27T13:06:16.872Z,3.75
2022-12-27T13:09:04.250Z,3.70
2022-12-27T13:11:59.658Z,3.78
2022-12-27T13:14:56.367Z,3.55
2022-12-27T13:18:03.611Z,3.65
2022-12-27T13:21:09.120Z,3.15
2022-12-27T13:24:02.744Z,3.05
2022-12-27T13:26:55.602Z,3.47
2022-12-27T13:29:48.118Z,4.37
2022-12-27T13:32:34.359Z,3.80
2022-12-27T13:35:23.693Z,3.75
2022-12-27T13:38:09.766Z,3.38
2022-12-27T13:41:28.036Z,3.55
2022-12-27T13:44:29.027Z,3.70
2022-12-27T13:47:34.317Z,4.00
2022-12-27T13:50:27.883Z,4.15
2022-12-27T13:56:51.454Z,3.72
2022-12-27T13:59:35.145Z,3.75
2022-12-27T14:02:40.771Z,3.53
2022-12-27T14:05:42.368Z,3.30
2022-12-27T14:08:35.268Z,3.28
2022-12-27T14:11:41.232Z,3.20
2022-12-27T14:14:28.805Z,2.65
2022-12-27T14:17:24.619Z,2.72
2022-12-27T14:20:20.258Z,3.30
2022-12-27T14:23:16.315Z,2.75
2022-12-27T14:26:08.579Z,3.33
2022-12-27T14:29:22.645Z,3.35
2022-12-27T14:32:28.510Z,2.92
2022-12-27T14:35:33.638Z,3.15
2022-12-27T14:38:57.333Z,2.75
2022-12-27T14:41:55.657Z,3.00
2022-12-27T14:44:48.150Z,2.97
2022-12-27T14:47:46.986Z,2.92
2022-12-27T14:50:52.159Z,3.15
2022-12-27T14:53:38.551Z,3.28
2022-12-27T14:56:43.752Z,3.50
2022-12-27T14:59:33.997Z,3.00
2022-12-27T15:02:23.536Z,2.78
2022-12-27T15:05:18.395Z,3.17
2022-12-27T15:08:14.904Z,2.70
2022-12-27T15:11:04.075Z,2.70
2022-12-27T15:13:56.301Z,2.65
2022-12-27T15:16:57.826Z,2.90
2022-12-27T15:19:56.652Z,2.83
2022-12-27T15:23:01.578Z,3.85
2022-12-27T15:26:10.926Z,4.63
2022-12-27T15:29:10.518Z,3.05
2022-12-27T15:32:01.273Z,3.28
2022-12-27T15:34:47.442Z,2.45
2022-12-27T15:37:49.102Z,2.72
2022-12-27T15:40:35.360Z,2.95
2022-12-27T15:44:00.718Z,2.63
2022-12-27T15:47:30.942Z,3.00
2022-12-27T15:50:29.593Z,3.05
2022-12-27T15:53:28.560Z,3.08
2022-12-27T15:56:18.172Z,3.85
2022-12-27T16:02:27.091Z,3.40
2022-12-27T16:05:22.851Z,3.85
2022-12-27T16:08:09.504Z,3.70
2022-12-27T16:10:56.618Z,3.75
2022-12-27T16:13:44.639Z,4.13
2022-12-27T16:16:33.300Z,3.80
2022-12-27T16:19:23.078Z,3.80
2022-12-27T16:22:25.125Z,3.75
2022-12-27T16:25:26.835Z,3.70
2022-12-27T16:28:28.212Z,3.95
2022-12-27T16:31:15.456Z,3.58
2022-12-27T16:34:25.885Z,3.80
2022-12-27T16:37:24.647Z,3.97
2022-12-27T16:40:20.284Z,3.05
2022-12-27T16:43:07.183Z,3.50
2022-12-27T16:46:05.298Z,4.25
2022-12-27T16:49:11.255Z,3.72
2022-12-27T16:52:07.577Z,3.50
2022-12-27T16:55:12.756Z,3.50
2022-12-27T16:58:18.737Z,3.05
2022-12-27T17:01:06.706Z,3.33
2022-12-27T17:03:54.430Z,3.63
2022-12-27T17:06:41.878Z,3.80
2022-12-27T17:09:40.379Z,3.03
2022-12-27T17:12:27.918Z,3.50
2022-12-27T17:15:14.554Z,3.35
2022-12-27T17:18:07.779Z,3.83
2022-12-27T17:21:00.147Z,3.70
2022-12-27T17:23:48.919Z,3.95
2022-12-27T17:26:51.170Z,3.80
2022-12-27T17:30:03.545Z,4.38
2022-12-27T17:33:08.880Z,4.45
2022-12-27T17:36:07.971Z,4.00
2022-12-27T17:38:54.383Z,4.28
2022-12-27T17:42:18.079Z,4.40
2022-12-27T17:45:07.815Z,4.07
2022-12-27T17:48:03.321Z,4.32
2022-12-27T17:54:44.994Z,5.65
2022-12-27T17:57:49.725Z,5.18
2022-12-27T18:00:39.959Z,4.97
2022-12-27T18:03:32.895Z,5.00
2022-12-27T18:06:20.168Z,4.63
2022-12-27T18:09:06.944Z,4.22
2022-12-27T18:11:53.754Z,4.78
2022-12-27T18:14:39.963Z,5.32
2022-12-27T18:17:29.333Z,4.65
2022-12-27T18:20:28.593Z,4.00
2022-12-27T18:23:18.641Z,4.95
2022-12-27T18:26:13.469Z,4.70
2022-12-27T18:29:00.149Z,4.30
2022-12-27T18:31:50.607Z,4.22
2022-12-27T18:34:55.947Z,4.20
2022-12-27T18:37:42.305Z,4.22
2022-12-27T18:40:28.738Z,4.82
2022-12-27T18:43:16.458Z,4.57
2022-12-27T18:46:03.572Z,3.90
2022-12-27T18:48:50.020Z,4.97
2022-12-27T18:51:38.241Z,4.65
2022-12-27T18:54:31.192Z,4.72
2022-12-27T18:57:31.892Z,4.00
2022-12-27T19:00:25.366Z,4.60
2022-12-27T19:03:16.104Z,4.95
2022-12-27T19:06:07.641Z,4.63
2022-12-27T19:08:54.125Z,4.50
2022-12-27T19:11:40.272Z,4.28
2022-12-27T19:14:28.228Z,4.60
2022-12-27T19:17:23.500Z,4.15
2022-12-27T19:20:19.907Z,4.43
2022-12-27T19:23:08.872Z,3.97
2022-12-27T19:26:02.825Z,4.05
2022-12-27T19:29:01.016Z,3.70
2022-12-27T19:32:01.180Z,3.58
2022-12-27T19:34:48.620Z,3.28
2022-12-27T19:37:35.853Z,4.38
2022-12-27T19:40:25.663Z,4.18
2022-12-27T19:43:14.260Z,4.13
2022-12-27T19:46:00.685Z,3.97
2022-12-27T19:49:07.662Z,4.32
2022-12-27T19:51:56.292Z,4.47
2022-12-27T19:54:43.533Z,4.40
2022-12-27T19:57:30.429Z,3.63
2022-12-27T20:00:17.498Z,4.45
2022-12-27T20:03:04.636Z,3.78
2022-12-27T20:06:14.268Z,4.53
2022-12-27T20:08:57.365Z,4.85
2022-12-27T20:11:44.170Z,4.60
2022-12-27T20:14:32.078Z,4.53
2022-12-27T20:17:18.442Z,4.65
2022-12-27T20:20:04.966Z,4.05
2022-12-27T20:22:51.409Z,5.75
2022-12-27T20:25:38.793Z,4.53
2022-12-27T20:28:25.456Z,4.40
2022-12-27T20:31:13.804Z,3.75
2022-12-27T20:34:00.011Z,4.20
2022-12-27T20:36:46.173Z,3.72
2022-12-27T20:39:32.773Z,4.05
2022-12-27T20:42:19.135Z,3.25
2022-12-27T20:45:05.433Z,3.75
2022-12-27T20:47:52.154Z,3.90
2022-12-27T20:50:39.113Z,4.00
2022-12-27T20:53:28.108Z,4.03
2022-12-27T20:56:15.009Z,4.28
2022-12-27T20:59:01.735Z,3.83
2022-12-27T21:01:53.022Z,3.60
2022-12-27T21:04:43.117Z,3.60
2022-12-27T21:07:29.374Z,3.42
2022-12-27T21:10:15.801Z,3.78
2022-12-27T21:13:02.338Z,3.20
2022-12-27T21:15:48.862Z,3.13
2022-12-27T21:18:35.423Z,3.58
2022-12-27T21:21:26.763Z,3.08
2022-12-27T21:24:14.556Z,2.90
2022-12-27T21:27:01.118Z,2.58
2022-12-27T21:29:47.236Z,2.60
2022-12-27T21:32:33.557Z,3.30
2022-12-27T21:35:19.665Z,3.05
2022-12-27T21:38:05.773Z,2.60
2022-12-27T21:40:59.082Z,2.85
2022-12-27T21:43:45.955Z,3.25
2022-12-27T21:46:37.090Z,2.70
2022-12-27T21:49:23.734Z,2.83
2022-12-27T21:52:09.948Z,3.00
2022-12-27T21:54:56.528Z,3.53
2022-12-27T21:57:42.902Z,2.65
2022-12-27T22:00:28.968Z,2.45
2022-12-27T22:03:15.263Z,2.42
2022-12-27T22:06:10.723Z,2.55
2022-12-27T22:09:01.025Z,2.60
2022-12-27T22:11:47.545Z,2.63
2022-12-27T22:14:36.971Z,2.40
2022-12-27T22:17:23.746Z,2.50
2022-12-27T22:20:10.532Z,2.80
2022-12-27T22:22:57.765Z,2.28
2022-12-27T22:25:44.613Z,2.90
2022-12-27T22:28:30.915Z,2.95
2022-12-27T22:31:25.142Z,2.40
2022-12-27T22:34:11.955Z,2.30
2022-12-27T22:36:58.076Z,3.10
2022-12-27T22:39:44.172Z,2.72
2022-12-27T22:42:30.854Z,2.92
2022-12-27T22:45:17.257Z,2.42
2022-12-27T22:48:03.390Z,2.88
2022-12-27T22:50:49.603Z,3.83
2022-12-27T22:53:35.973Z,4.40
2022-12-27T22:56:23.443Z,4.10
2022-12-27T22:59:10.769Z,3.63
2022-12-27T23:01:57.303Z,2.70
2022-12-27T23:04:43.508Z,2.97
2022-12-27T23:08:04.960Z,2.75
2022-12-27T23:10:36.359Z,2.75
2022-12-27T23:13:24.101Z,2.75
2022-12-27T23:16:10.542Z,3.03
2022-12-27T23:18:56.889Z,2.70
2022-12-27T23:21:43.040Z,2.53
2022-12-27T23:24:29.254Z,2.67
2022-12-27T23:27:15.317Z,2.58
2022-12-27T23:30:01.426Z,2.80
2022-12-27T23:32:47.589Z,3.05
2022-12-27T23:35:35.142Z,2.00
2022-12-27T23:38:21.131Z,2.47
2022-12-27T23:41:08.584Z,2.75
2022-12-27T23:43:56.219Z,2.58
2022-12-27T23:46:42.887Z,2.33
2022-12-27T23:49:29.856Z,2.50
2022-12-27T23:52:16.191Z,2.70
2022-12-27T23:55:02.505Z,2.85
2022-12-27T23:57:48.731Z,2.38
